Time;durP1;ratioP1;P1;durP2;ratioP2;P2;SDS_P1;SDS_P2;PMS_P1;PMS_P2;Temp;Humidity;BMP_temperature;BMP_pressure;BME280_temperature;BME280_humidity;BME280_pressure;Samples;Min_cycle;Max_cycle;Signal;HPM_P1;HPM_P2
2022/07/21 00:00:37;;;;;;;11.80;4.90;;;22.50;99.90;;;;;;3060311;19;20007;-72
2022/07/21 00:01:41;;;;;;;11.23;5.40;;;22.60;99.90;;;;;;3061277;19;20074;-74
2022/07/21 00:02:43;;;;;;;9.85;5.35;;;22.50;99.90;;;;;;3061362;19;20372;-75
2022/07/21 00:03:47;;;;;;;13.25;5.22;;;22.60;99.90;;;;;;3060806;19;20010;-75
2022/07/21 00:04:48;;;;;;;8.75;5.25;;;22.40;99.90;;;;;;3060567;19;20018;-75
2022/07/21 00:05:52;;;;;;;15.05;6.10;;;22.40;99.90;;;;;;3061257;19;20043;-75
2022/07/21 00:06:53;;;;;;;11.10;5.18;;;22.50;99.90;;;;;;3060176;19;20030;-75
2022/07/21 00:07:57;;;;;;;10.70;5.13;;;22.30;99.90;;;;;;3059814;19;20014;-75
2022/07/21 00:08:59;;;;;;;9.02;5.20;;;22.40;99.90;;;;;;3060403;19;20013;-75
2022/07/21 00:10:02;;;;;;;9.75;4.97;;;22.30;99.90;;;;;;3059116;19;20011;-75
2022/07/21 00:11:07;;;;;;;9.82;5.20;;;22.50;99.90;;;;;;3058698;19;20010;-75
2022/07/21 00:12:09;;;;;;;11.82;5.57;;;22.40;99.90;;;;;;3060609;19;20022;-75
2022/07/21 00:13:15;;;;;;;11.02;5.07;;;22.50;99.90;;;;;;3060312;19;20023;-75
2022/07/21 00:14:17;;;;;;;8.57;4.97;;;22.40;99.90;;;;;;3060611;19;20030;-74
2022/07/21 00:15:21;;;;;;;;;;;22.40;99.90;;;;;;3062572;19;20479;-74
2022/07/21 00:16:22;;;;;;;10.23;4.88;;;22.20;99.90;;;;;;3060428;19;19919;-75
2022/07/21 00:17:26;;;;;;;10.80;5.47;;;22.40;99.90;;;;;;3060403;19;20025;-74
2022/07/21 00:18:28;;;;;;;13.32;5.55;;;22.30;99.90;;;;;;3060621;19;20035;-75
2022/07/21 00:19:32;;;;;;;10.05;5.22;;;22.30;99.90;;;;;;3060359;19;20007;-75
2022/07/21 00:20:33;;;;;;;9.98;5.38;;;22.40;99.90;;;;;;3059643;19;20510;-75
2022/07/21 00:21:38;;;;;;;9.82;5.40;;;22.20;99.90;;;;;;3060470;19;20467;-75
2022/07/21 00:22:40;;;;;;;11.57;4.95;;;22.20;99.90;;;;;;3058699;19;20025;-75
2022/07/21 00:23:44;;;;;;;12.23;5.30;;;22.20;99.90;;;;;;3060131;19;20471;-75
2022/07/21 00:24:45;;;;;;;9.15;4.95;;;22.30;99.90;;;;;;3060466;19;20471;-75
2022/07/21 00:25:49;;;;;;;8.18;4.90;;;22.30;99.90;;;;;;3060359;19;20007;-75
2022/07/21 00:26:50;;;;;;;10.65;5.43;;;22.40;99.90;;;;;;3060323;19;20105;-74
2022/07/21 00:27:54;;;;;;;11.77;5.20;;;22.30;99.90;;;;;;3060172;19;20002;-74
2022/07/21 00:28:58;;;;;;;9.95;4.95;;;22.20;99.90;;;;;;3060979;19;20359;-75
2022/07/21 00:30:03;;;;;;;9.98;4.65;;;22.10;99.90;;;;;;3059464;19;20011;-74
2022/07/21 00:31:05;;;;;;;15.55;5.97;;;22.40;99.90;;;;;;3060445;19;20015;-76
2022/07/21 00:32:08;;;;;;;;;;;22.30;99.90;;;;;;3061964;19;20021;-75
2022/07/21 00:33:09;;;;;;;12.82;6.82;;;22.40;99.90;;;;;;3060395;19;20252;-75
2022/07/21 00:34:13;;;;;;;12.13;6.47;;;22.50;99.90;;;;;;3060332;19;20501;-75
2022/07/21 00:35:15;;;;;;;13.35;6.65;;;22.30;99.90;;;;;;3060078;19;20031;-75
2022/07/21 00:36:19;;;;;;;13.52;6.88;;;22.40;99.90;;;;;;3059279;19;19999;-75
2022/07/21 00:37:23;;;;;;;12.15;6.65;;;22.00;99.90;;;;;;3060035;19;20360;-75
2022/07/21 00:38:27;;;;;;;11.75;6.68;;;22.10;99.90;;;;;;3060487;19;20350;-75
2022/07/21 00:39:29;;;;;;;10.07;6.22;;;22.10;99.90;;;;;;3060442;19;20002;-75
2022/07/21 00:40:33;;;;;;;11.93;6.40;;;22.00;99.90;;;;;;3059896;19;20002;-75
2022/07/21 00:41:35;;;;;;;13.18;6.25;;;22.00;99.90;;;;;;3060226;19;20002;-75
2022/07/21 00:42:39;;;;;;;10.88;6.55;;;21.90;99.90;;;;;;3060375;19;20073;-75
2022/07/21 00:43:40;;;;;;;14.85;6.22;;;21.90;99.90;;;;;;3060125;19;20009;-75
2022/07/21 00:44:47;;;;;;;;;;;21.80;99.90;;;;;;3061647;19;20018;-75
2022/07/21 00:45:48;;;;;;;16.30;6.45;;;21.60;99.90;;;;;;3058914;19;19935;-74
2022/07/21 00:46:52;;;;;;;16.70;7.00;;;21.70;99.90;;;;;;3060028;19;20029;-74
2022/07/21 00:47:54;;;;;;;13.52;6.82;;;21.50;99.90;;;;;;3059098;19;20520;-74
2022/07/21 00:48:58;;;;;;;11.95;6.80;;;21.60;99.90;;;;;;3058773;19;20499;-75
2022/07/21 00:50:01;;;;;;;15.93;6.63;;;21.60;99.90;;;;;;3059377;19;20081;-75
2022/07/21 00:51:05;;;;;;;14.32;6.78;;;21.50;99.90;;;;;;3060549;19;20104;-75
2022/07/21 00:52:06;;;;;;;14.85;7.00;;;21.40;99.90;;;;;;3058932;19;20009;-75
2022/07/21 00:53:10;;;;;;;12.40;6.70;;;21.40;99.90;;;;;;3062054;19;20395;-74
2022/07/21 00:54:12;;;;;;;16.38;7.75;;;21.20;99.90;;;;;;3059188;19;20006;-75
2022/07/21 00:55:18;;;;;;;11.73;6.80;;;21.10;99.90;;;;;;3062000;19;20019;-75
2022/07/21 00:56:21;;;;;;;13.32;6.97;;;21.30;99.90;;;;;;3059433;19;20015;-75
2022/07/21 00:57:26;;;;;;;14.95;6.85;;;21.10;99.90;;;;;;3061877;19;20036;-75
2022/07/21 00:58:27;;;;;;;18.35;7.55;;;21.00;99.90;;;;;;3059647;19;20010;-76
2022/07/21 00:59:32;;;;;;;16.30;7.50;;;21.00;99.90;;;;;;3060198;19;20002;-75
2022/07/21 01:00:39;;;;;;;16.98;7.45;;;20.70;99.90;;;;;;3059548;19;20519;-75
2022/07/21 01:01:40;;;;;;;19.42;7.60;;;20.60;99.90;;;;;;3060069;19;20018;-75
2022/07/21 01:02:44;;;;;;;15.55;7.60;;;20.60;99.90;;;;;;3059203;19;20015;-74
2022/07/21 01:03:45;;;;;;;17.00;8.00;;;20.70;99.90;;;;;;3062083;19;20018;-75
2022/07/21 01:04:51;;;;;;;14.25;8.25;;;20.50;99.90;;;;;;3059915;19;20490;-75
2022/07/21 01:05:53;;;;;;;18.33;8.25;;;20.60;99.90;;;;;;3060039;19;20015;-75
2022/07/21 01:06:57;;;;;;;15.02;7.80;;;20.50;99.90;;;;;;3059773;19;20539;-74
2022/07/21 01:08:02;;;;;;;13.98;7.85;;;20.50;99.90;;;;;;3060165;19;20002;-75
2022/07/21 01:09:06;;;;;;;15.63;8.00;;;20.60;99.90;;;;;;3058470;19;20019;-75
2022/07/21 01:10:09;;;;;;;17.13;7.88;;;20.40;99.90;;;;;;3058842;19;20007;-75
2022/07/21 01:11:14;;;;;;;14.25;7.65;;;20.70;99.90;;;;;;3059536;19;20385;-75
2022/07/21 01:12:17;;;;;;;19.00;8.20;;;20.50;99.90;;;;;;3060060;19;20017;-75
2022/07/21 01:13:21;;;;;;;18.52;8.32;;;20.70;99.90;;;;;;3059707;19;20018;-74
2022/07/21 01:14:23;;;;;;;16.45;8.50;;;20.70;99.90;;;;;;3061881;19;20025;-75
2022/07/21 01:15:26;;;;;;;;;;;20.80;99.90;;;;;;3060271;19;20010;-74
2022/07/21 01:16:31;;;;;;;13.82;7.80;;;20.60;99.90;;;;;;3059466;19;19942;-74
2022/07/21 01:17:35;;;;;;;14.27;7.63;;;20.40;99.90;;;;;;3061164;19;20010;-75
2022/07/21 01:18:37;;;;;;;13.45;7.90;;;20.60;99.90;;;;;;3060034;19;20042;-74
2022/07/21 01:19:41;;;;;;;18.70;8.90;;;20.60;99.90;;;;;;3057729;19;20076;-74
2022/07/21 01:20:50;;;;;;;15.98;8.13;;;20.50;99.90;;;;;;3058756;19;20031;-74
2022/07/21 01:21:57;;;;;;;16.73;7.68;;;20.50;99.90;;;;;;3059345;19;20014;-74
2022/07/21 01:22:58;;;;;;;16.23;7.38;;;20.40;99.90;;;;;;3059471;19;20014;-74
2022/07/21 01:24:03;;;;;;;12.15;7.55;;;20.50;99.90;;;;;;3058254;19;20474;-74
2022/07/21 01:25:06;;;;;;;15.45;8.13;;;20.60;99.90;;;;;;3059805;19;20002;-74
2022/07/21 01:26:10;;;;;;;13.48;7.55;;;20.40;99.90;;;;;;3059196;19;20017;-75
2022/07/21 01:27:12;;;;;;;13.10;7.57;;;19.80;99.90;;;;;;3059729;19;20006;-74
2022/07/21 01:28:16;;;;;;;12.35;7.50;;;20.60;99.90;;;;;;3059418;19;20028;-74
2022/07/21 01:29:18;;;;;;;12.45;8.35;;;20.70;99.90;;;;;;3058815;19;20039;-74
2022/07/21 01:30:22;;;;;;;14.88;7.75;;;20.50;99.90;;;;;;3058088;19;20581;-74
2022/07/21 01:31:24;;;;;;;14.85;7.45;;;20.70;99.90;;;;;;3060108;19;20021;-74
2022/07/21 01:32:28;;;;;;;;;;;20.60;99.90;;;;;;3060338;19;20010;-75
2022/07/21 01:33:30;;;;;;;15.32;7.78;;;20.70;99.90;;;;;;3060542;19;19934;-74
2022/07/21 01:34:34;;;;;;;14.25;8.00;;;20.50;99.90;;;;;;3059334;19;20020;-74
2022/07/21 01:35:38;;;;;;;13.70;8.13;;;20.50;99.90;;;;;;3057093;19;20026;-74
2022/07/21 01:36:40;;;;;;;15.05;7.72;;;20.70;99.90;;;;;;3058774;19;20010;-74
2022/07/21 01:37:48;;;;;;;11.90;7.70;;;20.50;99.90;;;;;;3059423;19;20027;-75
2022/07/21 01:41:31;;;;;;;17.13;7.95;;;20.50;99.90;;;;;;3060072;19;20013;-74
2022/07/21 01:42:35;;;;;;;14.70;8.15;;;20.70;99.90;;;;;;3060497;19;20022;-74
2022/07/21 01:43:37;;;;;;;16.08;8.40;;;20.50;99.90;;;;;;3060888;19;20006;-74
2022/07/21 01:44:41;;;;;;;13.70;8.23;;;20.50;99.90;;;;;;3060360;19;20027;-73
2022/07/21 01:45:42;;;;;;;17.60;8.93;;;20.60;99.90;;;;;;3061254;19;20002;-73
2022/07/21 01:46:54;;;;;;;15.50;8.00;;;20.60;99.90;;;;;;3061572;19;20010;-74
2022/07/21 01:47:56;;;;;;;14.93;8.48;;;20.70;99.90;;;;;;3062176;19;20011;-74
2022/07/21 01:49:00;;;;;;;15.48;8.38;;;20.50;99.90;;;;;;3061212;19;20021;-74
2022/07/21 01:50:01;;;;;;;12.55;7.75;;;20.70;99.90;;;;;;3060249;19;20499;-74
2022/07/21 01:51:06;;;;;;;15.55;8.35;;;20.60;99.90;;;;;;3061103;19;20035;-73
2022/07/21 01:52:07;;;;;;;18.30;8.95;;;20.60;99.90;;;;;;3061426;19;20092;-74
2022/07/21 01:53:14;;;;;;;18.42;8.43;;;20.60;99.90;;;;;;3061500;19;20035;-73
2022/07/21 01:54:15;;;;;;;15.15;8.88;;;20.60;99.90;;;;;;3061201;19;20003;-73
2022/07/21 01:55:19;;;;;;;;;;;20.60;99.90;;;;;;3061915;19;20015;-73
2022/07/21 01:56:22;;;;;;;17.75;8.82;;;20.50;99.90;;;;;;3061091;19;19915;-73
2022/07/21 01:57:26;;;;;;;16.65;8.93;;;20.70;99.90;;;;;;3059248;19;20026;-73
2022/07/21 01:58:27;;;;;;;20.30;9.02;;;20.60;99.90;;;;;;3059694;19;20021;-73
2022/07/21 01:59:31;;;;;;;18.83;9.32;;;20.60;99.90;;;;;;3062035;19;20043;-73
2022/07/21 02:00:33;;;;;;;16.02;7.68;;;20.80;99.90;;;;;;3061457;19;20042;-73
2022/07/21 02:01:37;;;;;;;;;;;20.50;99.90;;;;;;3060970;19;20013;-73
2022/07/21 02:02:38;;;;;;;14.48;8.23;;;20.50;99.90;;;;;;3060743;19;19922;-73
2022/07/21 02:03:42;;;;;;;13.48;8.25;;;20.60;99.90;;;;;;3061252;19;20014;-74
2022/07/21 02:04:44;;;;;;;13.52;8.32;;;20.40;99.90;;;;;;3062153;19;20014;-73
2022/07/21 02:05:48;;;;;;;15.02;8.27;;;20.50;99.90;;;;;;3060006;19;20019;-73
2022/07/21 02:06:50;;;;;;;14.52;8.43;;;20.50;99.90;;;;;;3060596;19;20015;-74
2022/07/21 02:07:54;;;;;;;13.88;8.82;;;20.40;99.90;;;;;;3060624;19;20006;-73
2022/07/21 02:08:59;;;;;;;14.60;8.88;;;20.50;99.90;;;;;;3060095;19;20014;-74
2022/07/21 02:10:03;;;;;;;14.65;8.70;;;20.40;99.90;;;;;;3059974;19;20010;-73
2022/07/21 02:11:05;;;;;;;13.93;8.40;;;20.50;99.90;;;;;;3059799;19;20767;-74
2022/07/21 02:12:10;;;;;;;17.83;8.82;;;20.50;99.90;;;;;;3060031;19;20019;-74
2022/07/21 02:13:12;;;;;;;13.43;8.05;;;20.40;99.90;;;;;;3060199;19;20111;-74
2022/07/21 02:14:16;;;;;;;14.88;9.13;;;20.40;99.90;;;;;;3060642;19;20082;-74
2022/07/21 02:15:18;;;;;;;11.75;8.00;;;20.40;99.90;;;;;;3060966;19;20073;-74
2022/07/21 02:16:22;;;;;;;13.82;8.73;;;20.40;99.90;;;;;;3061202;19;20035;-73
2022/07/21 02:17:23;;;;;;;13.15;8.48;;;20.40;99.90;;;;;;3061329;19;20025;-74
2022/07/21 02:18:27;;;;;;;12.48;7.90;;;20.40;99.90;;;;;;3061355;19;20066;-73
2022/07/21 02:19:29;;;;;;;15.05;8.60;;;20.20;99.90;;;;;;3061037;19;20002;-74
2022/07/21 02:20:33;;;;;;;12.35;8.45;;;20.30;99.90;;;;;;3060688;19;20011;-75
2022/07/21 02:21:34;;;;;;;12.93;8.18;;;20.50;99.90;;;;;;3060745;19;20015;-74
2022/07/21 02:22:38;;;;;;;13.55;7.90;;;20.40;99.90;;;;;;3061718;19;20006;-74
2022/07/21 02:23:39;;;;;;;15.27;8.63;;;20.40;99.90;;;;;;3061604;19;20022;-74
2022/07/21 02:24:46;;;;;;;14.55;8.30;;;20.30;99.90;;;;;;3060732;19;20002;-74
2022/07/21 02:25:48;;;;;;;13.32;8.55;;;20.00;99.90;;;;;;3060051;19;20010;-74
2022/07/21 02:26:52;;;;;;;13.52;8.80;;;20.40;99.90;;;;;;3061560;19;20043;-73
2022/07/21 02:27:54;;;;;;;12.88;8.50;;;20.50;99.90;;;;;;3060516;19;20021;-74
2022/07/21 02:29:01;;;;;;;14.50;8.65;;;20.30;99.90;;;;;;3060217;19;20077;-74
2022/07/21 02:30:03;;;;;;;13.93;8.60;;;20.30;99.90;;;;;;3060208;19;19998;-73
2022/07/21 02:31:07;;;;;;;16.15;9.00;;;20.40;99.90;;;;;;3058616;19;20011;-74
2022/07/21 02:32:09;;;;;;;16.55;8.45;;;20.20;99.90;;;;;;3058598;19;20011;-74
2022/07/21 02:33:13;;;;;;;14.35;8.43;;;20.30;99.90;;;;;;3058299;19;20014;-74
2022/07/21 02:34:14;;;;;;;14.13;8.38;;;20.30;99.90;;;;;;3059058;19;20475;-74
2022/07/21 02:35:18;;;;;;;16.00;9.20;;;20.30;99.90;;;;;;3058457;19;20097;-74
2022/07/21 02:36:20;;;;;;;12.80;8.85;;;20.30;99.90;;;;;;3058742;19;20288;-74
2022/07/21 02:37:24;;;;;;;17.27;9.40;;;20.20;99.90;;;;;;3057870;19;20439;-74
2022/07/21 02:38:25;;;;;;;12.82;8.57;;;20.30;99.90;;;;;;3057817;19;20019;-74
2022/07/21 02:39:29;;;;;;;12.80;8.90;;;20.30;99.90;;;;;;3059787;19;20010;-74
2022/07/21 02:40:34;;;;;;;15.80;9.18;;;20.20;99.90;;;;;;3058201;19;20018;-74
2022/07/21 02:41:38;;;;;;;15.27;9.38;;;20.20;99.90;;;;;;3058579;19;20011;-74
2022/07/21 02:42:39;;;;;;;15.50;9.25;;;20.20;99.90;;;;;;3058562;19;20024;-74
2022/07/21 02:43:43;;;;;;;17.52;9.45;;;20.30;99.90;;;;;;3058635;19;20014;-74
2022/07/21 02:44:45;;;;;;;17.27;9.80;;;20.00;99.90;;;;;;3058360;19;20015;-75
2022/07/21 02:45:49;;;;;;;16.33;8.75;;;20.10;99.90;;;;;;3059968;19;20019;-74
2022/07/21 02:46:53;;;;;;;17.42;9.55;;;20.10;99.90;;;;;;3058342;19;20395;-74
2022/07/21 02:47:57;;;;;;;17.17;9.27;;;20.20;99.90;;;;;;3058436;19;20377;-74
2022/07/21 02:49:00;;;;;;;14.10;9.45;;;20.30;99.90;;;;;;3058447;19;20131;-74
2022/07/21 02:50:02;;;;;;;14.82;9.52;;;20.20;99.90;;;;;;3058666;19;20432;-74
2022/07/21 02:51:06;;;;;;;12.65;8.68;;;20.30;99.90;;;;;;3057683;19;20363;-74
2022/07/21 02:52:07;;;;;;;13.45;8.75;;;20.20;99.90;;;;;;3058655;19;20014;-74
2022/07/21 02:53:14;;;;;;;15.73;8.63;;;20.20;99.90;;;;;;3058232;19;20014;-74
2022/07/21 02:54:15;;;;;;;14.90;9.57;;;20.10;99.90;;;;;;3058324;19;20118;-73
2022/07/21 02:55:19;;;;;;;17.70;9.35;;;20.10;99.90;;;;;;3059417;19;20029;-74
2022/07/21 02:56:23;;;;;;;14.40;9.23;;;20.30;99.90;;;;;;3059279;19;20480;-74
2022/07/21 02:57:27;;;;;;;15.45;9.85;;;20.20;99.90;;;;;;3059078;19;20476;-74
2022/07/21 02:58:32;;;;;;;16.15;10.25;;;20.20;99.90;;;;;;3059544;19;20014;-74
2022/07/21 02:59:34;;;;;;;15.38;9.77;;;20.00;99.90;;;;;;3058164;19;20476;-74
2022/07/21 03:00:38;;;;;;;;;;;20.00;99.90;;;;;;3059000;19;20036;-74
2022/07/21 03:01:39;;;;;;;17.83;10.13;;;20.00;99.90;;;;;;3058398;19;19911;-74
2022/07/21 03:02:44;;;;;;;15.27;10.05;;;19.90;99.90;;;;;;3058947;19;20018;-74
2022/07/21 03:03:47;;;;;;;18.48;10.18;;;19.90;99.90;;;;;;3058322;19;20039;-74
2022/07/21 03:04:51;;;;;;;16.95;9.95;;;20.00;99.90;;;;;;3058429;19;20513;-74
2022/07/21 03:05:56;;;;;;;14.02;9.35;;;19.90;99.90;;;;;;3057286;19;20578;-74
2022/07/21 03:07:00;;;;;;;18.73;9.63;;;20.00;99.90;;;;;;3055183;19;20011;-74
2022/07/21 03:08:01;;;;;;;15.48;9.20;;;19.90;99.90;;;;;;3058980;19;20401;-74
2022/07/21 03:09:06;;;;;;;17.50;10.10;;;20.10;99.90;;;;;;3057749;19;20015;-74
2022/07/21 03:10:08;;;;;;;17.92;9.45;;;20.00;99.90;;;;;;3057970;19;20014;-74
2022/07/21 03:11:12;;;;;;;18.75;9.88;;;20.00;99.90;;;;;;3057753;19;20006;-71
2022/07/21 03:12:17;;;;;;;18.90;10.35;;;20.10;99.90;;;;;;3058046;19;20010;-72
2022/07/21 03:13:21;;;;;;;15.85;9.95;;;20.00;99.90;;;;;;3059990;19;20014;-71
2022/07/21 03:14:23;;;;;;;16.08;9.98;;;20.10;99.90;;;;;;3058630;19;20007;-74
2022/07/21 03:15:27;;;;;;;16.20;10.15;;;20.00;99.90;;;;;;3058314;19;20013;-74
2022/07/21 03:16:29;;;;;;;19.90;10.23;;;20.10;99.90;;;;;;3058012;19;20007;-74
2022/07/21 03:17:33;;;;;;;17.35;9.82;;;20.10;99.90;;;;;;3058218;19;20125;-74
2022/07/21 03:18:37;;;;;;;17.00;9.68;;;19.90;99.90;;;;;;3058177;19;20024;-74
2022/07/21 03:19:39;;;;;;;18.13;10.32;;;20.00;99.90;;;;;;3058198;19;20336;-74
2022/07/21 03:20:45;;;;;;;18.73;9.70;;;19.90;99.90;;;;;;3055963;19;20378;-74
2022/07/21 03:21:46;;;;;;;17.77;10.18;;;20.00;99.90;;;;;;3058129;19;20014;-74
2022/07/21 03:22:50;;;;;;;14.38;9.52;;;20.00;99.90;;;;;;3056991;19;20014;-74
2022/07/21 03:23:54;;;;;;;15.90;10.45;;;19.90;99.90;;;;;;3056822;19;20046;-74
2022/07/21 03:24:56;;;;;;;17.05;9.98;;;20.00;99.90;;;;;;3058389;19;20010;-74
2022/07/21 03:26:03;;;;;;;16.42;9.93;;;20.00;99.90;;;;;;3057943;19;20043;-74
2022/07/21 03:27:04;;;;;;;16.00;10.30;;;19.80;99.90;;;;;;3058244;19;20479;-74
2022/07/21 03:28:11;;;;;;;16.52;9.93;;;20.10;99.90;;;;;;3059571;19;20019;-74
2022/07/21 03:29:13;;;;;;;17.02;10.27;;;19.90;99.90;;;;;;3057992;19;20019;-74
2022/07/21 03:30:18;;;;;;;15.75;10.05;;;19.90;99.90;;;;;;3059327;19;20483;-74
2022/07/21 03:31:19;;;;;;;17.15;10.25;;;19.90;99.90;;;;;;3057385;19;20019;-74
2022/07/21 03:32:23;;;;;;;16.90;10.43;;;19.90;99.90;;;;;;3058137;19;20046;-74
2022/07/21 03:33:27;;;;;;;17.27;10.57;;;19.80;99.90;;;;;;3058024;19;20018;-74
2022/07/21 03:34:29;;;;;;;17.85;10.57;;;19.90;99.90;;;;;;3058091;19;20342;-74
2022/07/21 03:35:35;;;;;;;18.83;10.55;;;19.80;99.90;;;;;;3058079;19;20494;-74
2022/07/21 03:36:39;;;;;;;18.65;10.10;;;19.80;99.90;;;;;;3056783;19;20021;-74
2022/07/21 03:37:42;;;;;;;21.77;10.75;;;20.00;99.90;;;;;;3059621;19;20025;-74
2022/07/21 03:38:46;;;;;;;17.27;10.98;;;19.90;99.90;;;;;;3056894;19;20429;-74
2022/07/21 03:39:47;;;;;;;17.10;10.60;;;20.00;99.90;;;;;;3057247;19;20031;-74
2022/07/21 03:40:51;;;;;;;17.98;11.07;;;19.90;99.90;;;;;;3057747;19;20011;-74
2022/07/21 03:41:53;;;;;;;17.27;11.15;;;20.00;99.90;;;;;;3057920;19;20003;-74
2022/07/21 03:42:59;;;;;;;15.95;10.85;;;20.00;99.90;;;;;;3056912;19;20007;-74
2022/07/21 03:44:03;;;;;;;19.05;10.82;;;19.80;99.90;;;;;;3057919;19;20358;-74
2022/07/21 03:45:09;;;;;;;18.15;9.63;;;20.00;99.90;;;;;;3057743;19;20027;-75
2022/07/21 03:46:10;;;;;;;17.35;10.93;;;19.70;99.90;;;;;;3057058;19;20014;-74
2022/07/21 03:47:14;;;;;;;16.80;10.60;;;19.70;99.90;;;;;;3059065;19;20010;-74
2022/07/21 03:48:16;;;;;;;17.30;10.55;;;19.80;99.90;;;;;;3057808;19;20100;-74
2022/07/21 03:49:20;;;;;;;16.33;10.70;;;19.70;99.90;;;;;;3056296;19;20011;-74
2022/07/21 03:50:21;;;;;;;18.67;10.57;;;19.80;99.90;;;;;;3056842;19;20013;-74
2022/07/21 03:51:25;;;;;;;16.77;11.27;;;19.80;99.90;;;;;;3057716;19;20015;-74
2022/07/21 03:52:27;;;;;;;20.35;11.82;;;19.80;99.90;;;;;;3058359;19;20022;-74
2022/07/21 03:53:30;;;;;;;;;;;19.70;99.90;;;;;;3058271;19;20010;-74
2022/07/21 03:54:32;;;;;;;16.67;10.40;;;19.80;99.90;;;;;;3057627;19;20324;-74
2022/07/21 03:55:36;;;;;;;15.50;10.10;;;19.70;99.90;;;;;;3057441;19;20494;-74
2022/07/21 03:56:38;;;;;;;19.10;11.20;;;19.70;99.90;;;;;;3057688;19;20015;-74
2022/07/21 03:57:43;;;;;;;18.42;10.45;;;19.60;99.90;;;;;;3056897;19;20015;-74
2022/07/21 03:58:44;;;;;;;17.33;10.93;;;19.60;99.90;;;;;;3057727;19;20340;-74
2022/07/21 03:59:51;;;;;;;17.70;10.60;;;19.90;99.90;;;;;;3057669;19;20043;-74
2022/07/21 04:00:53;;;;;;;17.33;10.95;;;19.90;99.90;;;;;;3058067;19;20010;-74
2022/07/21 04:01:57;;;;;;;15.25;10.75;;;19.90;99.90;;;;;;3057339;19;20015;-75
2022/07/21 04:02:59;;;;;;;19.90;10.73;;;19.80;99.90;;;;;;3056151;19;20038;-74
2022/07/21 04:04:03;;;;;;;18.50;10.90;;;19.80;99.90;;;;;;3058449;19;20096;-74
2022/07/21 04:05:06;;;;;;;16.38;11.15;;;19.80;99.90;;;;;;3057557;19;20378;-74
2022/07/21 04:06:10;;;;;;;16.75;10.77;;;19.80;99.90;;;;;;3057577;19;20014;-74
2022/07/21 04:07:12;;;;;;;16.80;11.40;;;19.90;99.90;;;;;;3057833;19;20074;-74
2022/07/21 04:08:16;;;;;;;18.42;11.18;;;19.90;99.90;;;;;;3057481;19;20078;-74
2022/07/21 04:09:18;;;;;;;16.60;11.27;;;19.80;99.90;;;;;;3056998;19;20015;-74
2022/07/21 04:10:26;;;;;;;19.88;11.68;;;19.90;99.90;;;;;;3056527;19;20018;-74
2022/07/21 04:11:29;;;;;;;18.08;11.00;;;19.80;99.90;;;;;;3056673;19;20020;-74
2022/07/21 04:12:34;;;;;;;18.30;12.20;;;19.90;99.90;;;;;;3057333;19;20011;-74
2022/07/21 04:13:38;;;;;;;15.38;11.15;;;19.90;99.90;;;;;;3058064;19;20043;-74
2022/07/21 04:14:39;;;;;;;16.67;11.55;;;20.00;99.90;;;;;;3057536;19;20018;-74
2022/07/21 04:15:46;;;;;;;17.80;12.07;;;20.10;99.90;;;;;;3058224;19;20006;-74
2022/07/21 04:16:47;;;;;;;15.90;10.57;;;19.90;99.90;;;;;;3058767;19;20026;-74
2022/07/21 04:17:52;;;;;;;17.05;11.18;;;20.10;99.90;;;;;;3057328;19;20019;-74
2022/07/21 04:18:53;;;;;;;17.40;11.32;;;20.20;99.90;;;;;;3056664;19;20010;-74
2022/07/21 04:19:57;;;;;;;15.10;11.57;;;20.00;99.90;;;;;;3059381;19;20081;-74
2022/07/21 04:20:59;;;;;;;15.93;11.02;;;20.00;99.90;;;;;;3058801;19;20548;-74
2022/07/21 04:22:03;;;;;;;17.25;11.85;;;19.90;99.90;;;;;;3060244;19;20015;-74
2022/07/21 04:23:04;;;;;;;19.35;11.48;;;19.90;99.90;;;;;;3059132;19;20015;-74
2022/07/21 04:24:08;;;;;;;;;;;19.80;99.90;;;;;;3060361;19;20039;-75
2022/07/21 04:25:10;;;;;;;19.83;11.85;;;19.90;99.90;;;;;;3060647;19;19923;-75
2022/07/21 04:26:14;;;;;;;;;;;19.90;99.90;;;;;;3061444;19;20014;-75
2022/07/21 04:27:15;;;;;;;17.27;10.90;;;19.70;99.90;;;;;;3060739;19;19937;-74
2022/07/21 04:28:19;;;;;;;21.13;13.07;;;19.90;99.90;;;;;;3058374;19;20002;-75
2022/07/21 04:29:21;;;;;;;19.00;12.70;;;19.80;99.90;;;;;;3062377;19;20099;-74
2022/07/21 04:30:26;;;;;;;21.15;13.23;;;19.90;99.90;;;;;;3059112;19;20009;-74
2022/07/21 04:31:30;;;;;;;17.27;12.18;;;20.00;99.90;;;;;;3060367;19;20374;-74
2022/07/21 04:32:34;;;;;;;18.75;12.52;;;19.80;99.90;;;;;;3060771;19;20017;-74
2022/07/21 04:33:35;;;;;;;16.83;11.63;;;19.80;99.90;;;;;;3060386;19;20019;-74
2022/07/21 04:34:39;;;;;;;18.38;12.75;;;19.60;99.90;;;;;;3061555;19;20019;-74
2022/07/21 04:35:41;;;;;;;19.77;13.57;;;19.80;99.90;;;;;;3060890;19;20026;-74
2022/07/21 04:36:45;;;;;;;17.08;12.63;;;19.70;99.90;;;;;;3061231;19;20014;-75
2022/07/21 04:37:49;;;;;;;20.17;12.75;;;19.70;99.90;;;;;;3061460;19;20021;-74
2022/07/21 04:38:51;;;;;;;20.58;13.15;;;18.80;99.90;;;;;;3061507;19;20015;-74
2022/07/21 04:39:55;;;;;;;20.92;13.45;;;19.60;99.90;;;;;;3060579;19;20010;-74
2022/07/21 04:40:56;;;;;;;21.70;12.98;;;19.50;99.90;;;;;;3061700;19;20487;-74
2022/07/21 04:42:00;;;;;;;22.17;13.40;;;19.50;99.90;;;;;;3060638;19;20031;-74
2022/07/21 04:43:02;;;;;;;22.08;14.40;;;19.60;99.90;;;;;;3060488;19;20098;-74
2022/07/21 04:44:06;;;;;;;21.08;13.13;;;19.50;99.90;;;;;;3059104;19;20029;-75
2022/07/21 04:45:12;;;;;;;20.55;12.95;;;19.50;99.90;;;;;;3060324;19;20038;-75
2022/07/21 04:46:16;;;;;;;20.02;12.63;;;19.40;99.90;;;;;;3060161;19;20030;-74
2022/07/21 04:47:20;;;;;;;20.15;13.35;;;19.50;99.90;;;;;;3061863;19;20014;-75
2022/07/21 04:48:24;;;;;;;18.30;11.85;;;19.40;99.90;;;;;;3060184;19;20003;-75
2022/07/21 04:49:26;;;;;;;23.88;13.63;;;19.60;99.90;;;;;;3059197;19;20042;-74
2022/07/21 04:50:32;;;;;;;21.52;13.52;;;19.60;99.90;;;;;;3059772;19;20010;-74
2022/07/21 04:51:35;;;;;;;19.83;13.73;;;19.50;99.90;;;;;;3060456;19;20399;-74
2022/07/21 04:52:40;;;;;;;21.73;13.30;;;19.60;99.90;;;;;;3059832;19;20014;-74
2022/07/21 04:53:47;;;;;;;20.17;13.85;;;19.60;99.90;;;;;;3059032;19;19999;-75
2022/07/21 04:54:48;;;;;;;19.92;13.00;;;21.70;99.90;;;;;;3060392;19;20011;-74
2022/07/21 04:55:52;;;;;;;19.65;13.13;;;19.70;99.90;;;;;;3059968;19;20033;-74
2022/07/21 04:56:55;;;;;;;17.20;12.40;;;19.60;99.90;;;;;;3059613;19;20019;-75
2022/07/21 04:57:59;;;;;;;19.30;11.93;;;19.60;99.90;;;;;;3059776;19;20010;-74
2022/07/21 04:59:01;;;;;;;16.88;12.73;;;19.30;99.90;;;;;;3059854;19;20035;-74
2022/07/21 05:00:07;;;;;;;21.30;13.13;;;19.60;99.90;;;;;;3058511;19;20047;-74
2022/07/21 05:01:08;;;;;;;21.73;12.93;;;19.70;99.90;;;;;;3062041;19;20018;-74
2022/07/21 05:02:12;;;;;;;19.52;12.82;;;19.50;99.90;;;;;;3061181;19;20006;-74
2022/07/21 05:03:17;;;;;;;21.48;13.15;;;19.50;99.90;;;;;;3060183;19;20091;-74
2022/07/21 05:04:21;;;;;;;18.65;12.40;;;19.60;99.90;;;;;;3059896;19;20031;-74
2022/07/21 05:05:27;;;;;;;17.95;12.85;;;19.40;99.90;;;;;;3059839;19;20426;-74
2022/07/21 05:06:29;;;;;;;19.92;12.93;;;19.40;99.90;;;;;;3059595;19;20491;-74
2022/07/21 05:07:33;;;;;;;20.63;13.20;;;19.40;99.90;;;;;;3060125;19;20011;-74
2022/07/21 05:08:37;;;;;;;21.70;13.10;;;19.40;99.90;;;;;;3058512;19;20011;-74
2022/07/21 05:09:39;;;;;;;20.40;13.05;;;19.40;99.90;;;;;;3059261;19;20003;-74
2022/07/21 05:10:43;;;;;;;22.73;13.88;;;19.60;99.90;;;;;;3059516;19;20023;-74
2022/07/21 05:11:44;;;;;;;25.63;13.77;;;19.50;99.90;;;;;;3059856;19;20433;-74
2022/07/21 05:12:49;;;;;;;20.65;13.35;;;19.50;99.90;;;;;;3059399;19;20353;-74
2022/07/21 05:13:51;;;;;;;23.58;13.40;;;19.60;99.90;;;;;;3059163;19;20025;-73
2022/07/21 05:14:55;;;;;;;22.60;13.32;;;19.60;99.90;;;;;;3059843;19;20362;-74
2022/07/21 05:15:56;;;;;;;19.23;13.65;;;19.40;99.90;;;;;;3060216;19;20006;-74
2022/07/21 05:17:00;;;;;;;21.05;13.25;;;19.40;99.90;;;;;;3059724;19;20011;-74
2022/07/21 05:18:01;;;;;;;22.60;13.88;;;19.40;99.90;;;;;;3060421;19;20026;-74
2022/07/21 05:19:09;;;;;;;22.10;13.68;;;19.40;99.90;;;;;;3061151;19;20038;-74
2022/07/21 05:20:11;;;;;;;21.27;13.75;;;19.60;99.90;;;;;;3059729;19;20007;-74
2022/07/21 05:21:15;;;;;;;20.77;13.02;;;19.40;99.90;;;;;;3059416;19;20011;-74
2022/07/21 05:22:19;;;;;;;23.85;14.07;;;19.50;99.90;;;;;;3059875;19;20002;-74
2022/07/21 05:23:21;;;;;;;23.90;14.73;;;19.40;99.90;;;;;;3061023;19;20555;-75
2022/07/21 05:24:27;;;;;;;22.23;14.45;;;19.40;99.90;;;;;;3060008;19;20018;-74
2022/07/21 05:25:29;;;;;;;22.90;14.52;;;19.40;99.90;;;;;;3059596;19;20010;-74
2022/07/21 05:26:32;;;;;;;21.65;13.57;;;19.50;99.90;;;;;;3059580;19;20003;-74
2022/07/21 05:27:34;;;;;;;21.63;14.30;;;19.70;99.90;;;;;;3057709;19;20018;-74